createdAt,value
2019-03-08T00:01:53.470Z,1.43
2019-03-08T00:06:57.740Z,1.30
2019-03-08T00:12:01.904Z,1.10
2019-03-08T00:17:06.379Z,1.67
2019-03-08T00:22:10.296Z,1.50
2019-03-08T00:27:14.540Z,1.30
2019-03-08T00:32:18.447Z,1.77
2019-03-08T00:37:22.272Z,1.50
2019-03-08T00:42:26.551Z,1.30
2019-03-08T00:47:30.543Z,1.20
2019-03-08T00:52:34.821Z,1.20
2019-03-08T00:57:38.973Z,1.77
2019-03-08T01:02:42.944Z,1.30
2019-03-08T01:07:47.934Z,1.30
2019-03-08T01:12:52.324Z,1.30
2019-03-08T01:17:56.236Z,1.10
2019-03-08T01:23:00.828Z,1.10
2019-03-08T01:28:09.975Z,1.77
2019-03-08T01:33:14.221Z,1.60
2019-03-08T01:38:18.548Z,1.33
2019-03-08T01:43:22.459Z,1.70
2019-03-08T01:48:26.627Z,1.87
2019-03-08T01:53:30.748Z,1.30
2019-03-08T01:58:34.964Z,2.20
2019-03-08T02:03:39.417Z,2.07
2019-03-08T02:08:43.513Z,1.50
2019-03-08T02:13:47.608Z,1.50
2019-03-08T02:18:51.479Z,1.40
2019-03-08T02:23:55.374Z,1.37
2019-03-08T02:28:59.512Z,1.30
2019-03-08T02:34:03.534Z,1.97
2019-03-08T02:39:10.125Z,1.50
2019-03-08T02:44:14.600Z,1.60
2019-03-08T02:49:18.675Z,1.73
2019-03-08T02:54:23.084Z,1.53
2019-03-08T02:59:27.516Z,1.57
2019-03-08T03:04:31.761Z,1.40
2019-03-08T03:09:36.765Z,1.63
2019-03-08T03:14:40.758Z,2.07
2019-03-08T03:19:44.763Z,1.87
2019-03-08T03:24:49.383Z,1.77
2019-03-08T03:29:53.358Z,1.60
2019-03-08T03:34:57.572Z,1.50
2019-03-08T03:40:02.148Z,1.63
2019-03-08T03:45:07.500Z,1.37
2019-03-08T03:50:11.876Z,1.30
2019-03-08T03:55:16.230Z,1.20
2019-03-08T04:00:21.480Z,1.27
2019-03-08T04:05:26.100Z,1.40
2019-03-08T04:10:30.434Z,1.40
2019-03-08T04:15:34.760Z,1.03
2019-03-08T04:20:39.380Z,1.23
2019-03-08T04:25:43.615Z,1.20
2019-03-08T04:30:48.248Z,1.50
2019-03-08T04:35:53.059Z,1.43
2019-03-08T04:40:57.579Z,1.23
2019-03-08T04:46:01.751Z,1.70
2019-03-08T04:51:06.210Z,1.93
2019-03-08T04:56:10.342Z,2.13
2019-03-08T05:01:15.275Z,2.00
2019-03-08T05:06:19.552Z,1.70
2019-03-08T05:11:24.662Z,2.53
2019-03-08T05:16:28.867Z,2.80
2019-03-08T05:21:32.862Z,2.20
2019-03-08T05:26:37.098Z,2.80
2019-03-08T05:31:41.327Z,3.30
2019-03-08T05:36:45.916Z,2.90
2019-03-08T05:41:50.923Z,2.93
2019-03-08T05:46:55.418Z,2.87
2019-03-08T05:52:00.203Z,3.77
2019-03-08T05:57:04.496Z,4.37
2019-03-08T06:02:08.790Z,3.63
2019-03-08T06:07:13.099Z,4.30
2019-03-08T06:12:17.153Z,4.07
2019-03-08T06:17:21.386Z,4.80
2019-03-08T06:22:25.764Z,4.37
2019-03-08T06:27:30.052Z,4.47
2019-03-08T06:32:34.189Z,5.33
2019-03-08T06:37:38.320Z,5.40
2019-03-08T06:42:42.328Z,5.53
2019-03-08T06:47:46.891Z,5.03
2019-03-08T06:52:50.931Z,4.90
2019-03-08T06:58:05.436Z,4.97
2019-03-08T07:03:09.965Z,5.90
2019-03-08T07:08:14.453Z,5.77
2019-03-08T07:13:19.214Z,6.50
2019-03-08T07:18:24.115Z,5.27
2019-03-08T07:23:50.123Z,6.10
2019-03-08T07:29:09.386Z,5.73
2019-03-08T07:34:31.119Z,6.67
2019-03-08T07:39:50.027Z,6.77
2019-03-08T07:45:12.102Z,5.73
2019-03-08T07:50:30.484Z,7.20
2019-03-08T07:55:59.842Z,5.73
2019-03-08T08:01:18.355Z,6.90
2019-03-08T08:06:27.223Z,6.87
2019-03-08T08:11:53.275Z,6.60
2019-03-08T08:17:15.619Z,8.23
2019-03-08T08:22:29.223Z,7.67
2019-03-08T08:28:05.415Z,6.80
2019-03-08T08:33:27.262Z,7.30
2019-03-08T08:38:38.480Z,7.10
2019-03-08T08:44:12.839Z,7.60
2019-03-08T08:49:43.418Z,5.53
2019-03-08T08:55:02.377Z,4.60
2019-03-08T09:00:27.355Z,6.77
2019-03-08T09:05:42.319Z,5.70
2019-03-08T09:11:03.231Z,5.17
2019-03-08T09:16:12.596Z,6.80
2019-03-08T09:21:29.791Z,7.60
2019-03-08T09:26:52.341Z,6.53
2019-03-08T09:32:03.039Z,5.40
2019-03-08T09:37:27.075Z,5.20
2019-03-08T09:42:52.974Z,5.50
2019-03-08T09:48:08.207Z,4.23
2019-03-08T09:53:40.452Z,4.43
2019-03-08T09:59:08.786Z,4.00
2019-03-08T10:04:22.776Z,3.90
2019-03-08T10:10:04.031Z,5.40
2019-03-08T10:15:26.683Z,4.90
2019-03-08T10:20:49.140Z,6.17
2019-03-08T10:26:15.616Z,5.07
2019-03-08T10:31:25.571Z,5.33
2019-03-08T10:36:49.839Z,4.43
2019-03-08T10:42:28.291Z,4.73
2019-03-08T10:47:56.078Z,4.67
2019-03-08T10:53:13.386Z,3.93
2019-03-08T10:58:46.028Z,4.40
2019-03-08T11:03:57.059Z,4.00
2019-03-08T11:09:19.009Z,3.90
2019-03-08T11:14:51.104Z,3.87
2019-03-08T11:20:14.405Z,4.53
2019-03-08T11:25:43.772Z,4.60
2019-03-08T11:31:05.428Z,3.60
2019-03-08T11:36:43.830Z,4.40
2019-03-08T11:41:56.983Z,3.70
2019-03-08T11:47:20.123Z,3.20
2019-03-08T11:52:58.854Z,2.67
2019-03-08T11:58:14.923Z,2.60
2019-03-08T12:03:44.206Z,2.73
2019-03-08T12:09:13.595Z,2.43
2019-03-08T12:14:37.144Z,2.47
2019-03-08T12:20:00.436Z,2.67
2019-03-08T12:25:11.850Z,2.40
2019-03-08T12:30:37.596Z,2.53
2019-03-08T12:36:07.151Z,2.37
2019-03-08T12:41:42.691Z,2.80
2019-03-08T12:47:09.005Z,2.60
2019-03-08T12:52:41.364Z,2.77
2019-03-08T12:58:19.903Z,2.07
2019-03-08T13:03:50.595Z,1.97
2019-03-08T13:09:17.183Z,2.60
2019-03-08T13:14:21.654Z,2.80
2019-03-08T13:19:25.903Z,2.70
2019-03-08T13:24:30.375Z,2.60
2019-03-08T13:29:34.965Z,2.67
2019-03-08T13:34:39.027Z,2.63
2019-03-08T13:39:44.428Z,5.67
2019-03-08T13:44:49.204Z,4.17
2019-03-08T13:49:53.293Z,3.23
2019-03-08T13:54:57.880Z,2.60
2019-03-08T14:00:02.967Z,2.90
2019-03-08T14:05:07.148Z,3.93
2019-03-08T14:10:13.844Z,4.40
2019-03-08T14:15:18.037Z,4.00
2019-03-08T14:20:24.762Z,3.70
2019-03-08T14:25:28.751Z,2.93
2019-03-08T14:30:37.586Z,4.00
2019-03-08T14:35:41.963Z,3.80
2019-03-08T14:41:14.660Z,3.17
2019-03-08T14:46:28.275Z,4.20
2019-03-08T14:51:37.023Z,4.00
2019-03-08T14:56:41.532Z,4.20
2019-03-08T15:01:46.299Z,2.83
2019-03-08T15:06:50.659Z,3.90
2019-03-08T15:11:56.065Z,3.30
2019-03-08T15:17:08.902Z,4.53
2019-03-08T15:22:07.373Z,5.40
2019-03-08T15:27:11.792Z,4.87
2019-03-08T15:32:15.875Z,4.30
2019-03-08T15:37:19.975Z,4.53
2019-03-08T15:42:24.730Z,3.57
2019-03-08T15:47:28.855Z,3.80
2019-03-08T15:52:34.895Z,2.90
2019-03-08T15:57:39.296Z,3.30
2019-03-08T16:02:43.360Z,3.33
2019-03-08T16:07:47.747Z,3.10
2019-03-08T16:12:52.170Z,2.50
2019-03-08T16:17:56.572Z,2.77
2019-03-08T16:23:02.512Z,2.93
2019-03-08T16:28:07.147Z,3.70
2019-03-08T16:33:23.960Z,3.03
2019-03-08T16:38:43.974Z,2.40
2019-03-08T16:44:07.133Z,3.53
2019-03-08T16:49:24.840Z,4.17
2019-03-08T16:54:54.167Z,5.17
2019-03-08T17:00:06.072Z,4.73
2019-03-08T17:05:28.376Z,5.43
2019-03-08T17:11:00.247Z,4.80
2019-03-08T17:16:16.592Z,5.13
2019-03-08T17:21:42.901Z,4.80
2019-03-08T17:26:56.799Z,3.33
2019-03-08T17:32:18.873Z,4.10
2019-03-08T17:37:54.342Z,3.90
2019-03-08T17:43:10.536Z,3.97
2019-03-08T17:48:36.575Z,3.90
2019-03-08T17:54:09.151Z,4.10
2019-03-08T17:59:35.651Z,4.47
2019-03-08T18:04:50.125Z,3.30
2019-03-08T18:10:12.020Z,3.63
2019-03-08T18:15:29.747Z,3.40
2019-03-08T18:20:59.951Z,3.20
2019-03-08T18:26:18.915Z,3.63
2019-03-08T18:31:42.072Z,2.90
2019-03-08T18:37:05.858Z,3.70
2019-03-08T18:42:32.173Z,3.17
2019-03-08T18:47:52.967Z,2.57
2019-03-08T18:53:14.425Z,3.60
2019-03-08T18:58:42.843Z,3.17
2019-03-08T19:04:18.563Z,3.60
2019-03-08T19:09:30.587Z,2.70
2019-03-08T19:14:49.965Z,3.63
2019-03-08T19:20:11.951Z,2.90
2019-03-08T19:25:22.683Z,4.10
2019-03-08T19:30:38.231Z,5.93
2019-03-08T19:36:17.414Z,3.27
2019-03-08T19:41:47.163Z,3.90
2019-03-08T19:47:22.463Z,3.70
2019-03-08T19:52:48.099Z,3.40
2019-03-08T19:58:01.993Z,4.43
2019-03-08T20:03:17.305Z,3.37
2019-03-08T20:08:40.046Z,3.87
2019-03-08T20:14:03.707Z,3.50
2019-03-08T20:19:14.379Z,3.70
2019-03-08T20:24:53.320Z,3.90
2019-03-08T20:30:15.065Z,3.93
2019-03-08T20:35:44.803Z,3.80
2019-03-08T20:41:11.328Z,4.60
2019-03-08T20:46:29.854Z,5.50
2019-03-08T20:51:33.853Z,5.60
2019-03-08T20:56:38.008Z,3.83
2019-03-08T21:01:42.467Z,5.20
2019-03-08T21:06:46.847Z,4.30
2019-03-08T21:11:50.943Z,7.40
2019-03-08T21:16:55.111Z,7.17
2019-03-08T21:21:59.859Z,6.60
2019-03-08T21:27:04.190Z,5.67
2019-03-08T21:32:08.251Z,4.90
2019-03-08T21:37:13.143Z,5.10
2019-03-08T21:42:17.452Z,5.00
2019-03-08T21:47:22.736Z,5.93
2019-03-08T21:52:27.047Z,4.33
2019-03-08T21:57:31.939Z,6.07
2019-03-08T22:02:35.966Z,5.73
2019-03-08T22:07:40.542Z,3.93
2019-03-08T22:12:44.967Z,4.23
2019-03-08T22:17:49.378Z,4.70
2019-03-08T22:22:53.422Z,4.33
2019-03-08T22:27:58.148Z,4.07
2019-03-08T22:33:02.846Z,4.30
2019-03-08T22:38:06.900Z,4.17
2019-03-08T22:43:10.947Z,4.03
2019-03-08T22:48:15.496Z,4.57
2019-03-08T22:53:21.095Z,3.90
2019-03-08T22:58:25.564Z,3.50
2019-03-08T23:03:30.232Z,4.40
2019-03-08T23:08:34.319Z,3.93
2019-03-08T23:13:38.772Z,3.60
2019-03-08T23:18:43.091Z,4.37
2019-03-08T23:23:47.432Z,3.63
2019-03-08T23:28:56.739Z,4.37
2019-03-08T23:34:02.785Z,3.77
2019-03-08T23:39:08.536Z,4.87
2019-03-08T23:44:12.882Z,4.43
2019-03-08T23:49:17.114Z,2.73
2019-03-08T23:54:22.124Z,3.70
2019-03-08T23:59:26.903Z,3.23
